sensor_id;sensor_type;location;lat;lon;timestamp;pressure;altitude;pressure_sealevel;temperature;humidity
7888;BME280;3989;48.810;9.208;2024-01-06T00:01:10;97585.19;;;4.89;100.00
7888;BME280;3989;48.810;9.208;2024-01-06T00:03:37;97621.97;;;5.07;100.00
7888;BME280;3989;48.810;9.208;2024-01-06T00:06:06;97624.25;;;5.10;100.00
7888;BME280;3989;48.810;9.208;2024-01-06T00:08:32;97632.47;;;5.15;100.00
7888;BME280;3989;48.810;9.208;2024-01-06T00:10:59;97631.66;;;5.14;100.00
7888;BME280;3989;48.810;9.208;2024-01-06T00:13:28;97631.50;;;5.16;100.00
7888;BME280;3989;48.810;9.208;2024-01-06T00:15:55;97626.84;;;5.18;100.00
7888;BME280;3989;48.810;9.208;2024-01-06T00:18:22;97640.75;;;5.20;100.00
7888;BME280;3989;48.810;9.208;2024-01-06T00:20:49;97622.59;;;5.09;100.00
7888;BME280;3989;48.810;9.208;2024-01-06T00:23:18;97641.41;;;5.14;100.00
7888;BME280;3989;48.810;9.208;2024-01-06T00:25:47;97630.59;;;5.01;100.00
7888;BME280;3989;48.810;9.208;2024-01-06T00:28:14;97624.13;;;4.95;100.00
7888;BME280;3989;48.810;9.208;2024-01-06T00:30:40;97627.97;;;4.93;100.00
7888;BME280;3989;48.810;9.208;2024-01-06T00:33:07;97643.13;;;4.99;100.00
7888;BME280;3989;48.810;9.208;2024-01-06T00:35:34;97595.38;;;4.61;100.00
7888;BME280;3989;48.810;9.208;2024-01-06T00:38:01;97645.16;;;4.89;100.00
7888;BME280;3989;48.810;9.208;2024-01-06T00:40:29;97651.13;;;4.83;100.00
7888;BME280;3989;48.810;9.208;2024-01-06T00:42:57;97643.19;;;4.83;100.00
7888;BME280;3989;48.810;9.208;2024-01-06T00:45:24;97645.69;;;4.76;100.00
7888;BME280;3989;48.810;9.208;2024-01-06T00:47:51;97648.31;;;4.76;100.00
7888;BME280;3989;48.810;9.208;2024-01-06T00:50:18;97647.19;;;4.70;100.00
7888;BME280;3989;48.810;9.208;2024-01-06T00:52:45;97659.44;;;4.71;100.00
7888;BME280;3989;48.810;9.208;2024-01-06T00:55:12;97652.47;;;4.70;100.00
7888;BME280;3989;48.810;9.208;2024-01-06T00:57:40;97656.09;;;4.69;100.00
7888;BME280;3989;48.810;9.208;2024-01-06T01:00:07;97653.97;;;4.73;100.00
7888;BME280;3989;48.810;9.208;2024-01-06T01:02:35;97667.16;;;4.81;100.00
7888;BME280;3989;48.810;9.208;2024-01-06T01:05:02;97646.19;;;4.80;100.00
7888;BME280;3989;48.810;9.208;2024-01-06T01:07:28;97633.47;;;4.75;100.00
7888;BME280;3989;48.810;9.208;2024-01-06T01:09:56;97670.56;;;4.98;100.00
7888;BME280;3989;48.810;9.208;2024-01-06T01:12:23;97648.97;;;4.86;100.00
7888;BME280;3989;48.810;9.208;2024-01-06T01:14:52;97645.88;;;4.74;100.00
7888;BME280;3989;48.810;9.208;2024-01-06T01:17:19;97666.16;;;4.82;100.00
7888;BME280;3989;48.810;9.208;2024-01-06T01:19:46;97676.41;;;4.77;100.00
7888;BME280;3989;48.810;9.208;2024-01-06T01:22:13;97638.50;;;4.46;100.00
7888;BME280;3989;48.810;9.208;2024-01-06T01:24:41;97681.22;;;4.65;100.00
7888;BME280;3989;48.810;9.208;2024-01-06T01:27:08;97619.22;;;4.21;100.00
7888;BME280;3989;48.810;9.208;2024-01-06T01:29:35;97686.38;;;4.51;100.00
7888;BME280;3989;48.810;9.208;2024-01-06T01:32:05;97678.13;;;4.38;100.00
7888;BME280;3989;48.810;9.208;2024-01-06T01:34:32;97678.31;;;4.28;100.00
7888;BME280;3989;48.810;9.208;2024-01-06T01:37:00;97670.22;;;4.21;100.00
7888;BME280;3989;48.810;9.208;2024-01-06T01:39:29;97687.88;;;4.29;100.00
7888;BME280;3989;48.810;9.208;2024-01-06T01:41:56;97693.31;;;4.28;100.00
7888;BME280;3989;48.810;9.208;2024-01-06T01:44:23;97694.63;;;4.23;100.00
7888;BME280;3989;48.810;9.208;2024-01-06T01:46:50;97694.81;;;4.30;100.00
7888;BME280;3989;48.810;9.208;2024-01-06T01:49:19;97626.66;;;3.85;100.00
7888;BME280;3989;48.810;9.208;2024-01-06T01:51:47;97696.78;;;4.28;100.00
7888;BME280;3989;48.810;9.208;2024-01-06T01:54:14;97693.31;;;4.28;100.00
7888;BME280;3989;48.810;9.208;2024-01-06T01:56:41;97710.13;;;4.43;100.00
7888;BME280;3989;48.810;9.208;2024-01-06T01:59:11;97707.66;;;4.49;100.00
7888;BME280;3989;48.810;9.208;2024-01-06T02:01:39;97686.72;;;4.32;100.00
7888;BME280;3989;48.810;9.208;2024-01-06T02:04:06;97696.16;;;4.26;100.00
7888;BME280;3989;48.810;9.208;2024-01-06T02:06:34;97720.56;;;4.36;100.00
7888;BME280;3989;48.810;9.208;2024-01-06T02:09:01;97665.13;;;4.04;100.00
7888;BME280;3989;48.810;9.208;2024-01-06T02:11:28;97691.34;;;4.21;100.00
7888;BME280;3989;48.810;9.208;2024-01-06T02:13:55;97706.69;;;4.34;100.00
7888;BME280;3989;48.810;9.208;2024-01-06T02:16:22;97695.31;;;4.26;100.00
7888;BME280;3989;48.810;9.208;2024-01-06T02:18:49;97721.06;;;4.32;100.00
7888;BME280;3989;48.810;9.208;2024-01-06T02:21:17;97692.16;;;4.14;100.00
7888;BME280;3989;48.810;9.208;2024-01-06T02:23:47;97693.16;;;4.21;100.00
7888;BME280;3989;48.810;9.208;2024-01-06T02:26:15;97717.09;;;4.52;100.00
7888;BME280;3989;48.810;9.208;2024-01-06T02:28:42;97723.19;;;4.68;100.00
7888;BME280;3989;48.810;9.208;2024-01-06T02:31:13;97726.63;;;4.77;100.00
7888;BME280;3989;48.810;9.208;2024-01-06T02:33:39;97718.03;;;4.75;100.00
7888;BME280;3989;48.810;9.208;2024-01-06T02:36:07;97732.56;;;4.79;100.00
7888;BME280;3989;48.810;9.208;2024-01-06T02:38:33;97719.69;;;4.76;100.00
7888;BME280;3989;48.810;9.208;2024-01-06T02:41:02;97674.50;;;4.55;100.00
7888;BME280;3989;48.810;9.208;2024-01-06T02:43:29;97739.16;;;4.91;100.00
7888;BME280;3989;48.810;9.208;2024-01-06T02:45:56;97744.81;;;4.80;100.00
7888;BME280;3989;48.810;9.208;2024-01-06T02:48:22;97724.47;;;4.72;100.00
7888;BME280;3989;48.810;9.208;2024-01-06T02:50:49;97724.47;;;4.72;100.00
7888;BME280;3989;48.810;9.208;2024-01-06T02:53:16;97680.44;;;4.49;100.00
7888;BME280;3989;48.810;9.208;2024-01-06T02:55:43;97697.25;;;4.56;100.00
7888;BME280;3989;48.810;9.208;2024-01-06T02:58:11;97730.28;;;4.68;100.00
7888;BME280;3989;48.810;9.208;2024-01-06T03:00:38;97730.41;;;4.83;100.00
7888;BME280;3989;48.810;9.208;2024-01-06T03:03:05;97734.19;;;4.88;100.00
7888;BME280;3989;48.810;9.208;2024-01-06T03:05:32;97738.00;;;4.86;100.00
7888;BME280;3989;48.810;9.208;2024-01-06T03:07:58;97752.06;;;4.86;100.00
7888;BME280;3989;48.810;9.208;2024-01-06T03:10:26;97737.22;;;4.77;100.00
7888;BME280;3989;48.810;9.208;2024-01-06T03:12:53;97721.88;;;4.64;100.00
7888;BME280;3989;48.810;9.208;2024-01-06T03:15:22;97735.06;;;4.64;100.00
7888;BME280;3989;48.810;9.208;2024-01-06T03:17:49;97738.38;;;4.66;100.00
7888;BME280;3989;48.810;9.208;2024-01-06T03:20:15;97748.63;;;4.61;100.00
7888;BME280;3989;48.810;9.208;2024-01-06T03:22:42;97734.25;;;4.48;100.00
7888;BME280;3989;48.810;9.208;2024-01-06T03:25:09;97742.34;;;4.54;100.00
7888;BME280;3989;48.810;9.208;2024-01-06T03:27:36;97731.97;;;4.45;100.00
7888;BME280;3989;48.810;9.208;2024-01-06T03:30:05;97730.13;;;4.37;100.00
7888;BME280;3989;48.810;9.208;2024-01-06T03:32:33;97718.91;;;4.27;100.00
7888;BME280;3989;48.810;9.208;2024-01-06T03:35:00;97736.91;;;4.32;100.00
7888;BME280;3989;48.810;9.208;2024-01-06T03:37:27;97740.53;;;4.22;100.00
7888;BME280;3989;48.810;9.208;2024-01-06T03:39:54;97735.59;;;4.19;100.00
7888;BME280;3989;48.810;9.208;2024-01-06T03:42:21;97715.44;;;4.02;100.00
7888;BME280;3989;48.810;9.208;2024-01-06T03:44:48;97718.91;;;4.11;100.00
7888;BME280;3989;48.810;9.208;2024-01-06T03:47:15;97716.09;;;4.04;100.00
7888;BME280;3989;48.810;9.208;2024-01-06T03:49:43;97732.78;;;4.13;100.00
7888;BME280;3989;48.810;9.208;2024-01-06T03:52:09;97728.94;;;4.07;100.00
7888;BME280;3989;48.810;9.208;2024-01-06T03:54:36;97717.06;;;3.95;100.00
7888;BME280;3989;48.810;9.208;2024-01-06T03:57:03;97745.63;;;4.08;100.00
7888;BME280;3989;48.810;9.208;2024-01-06T03:59:29;97739.50;;;4.07;100.00
7888;BME280;3989;48.810;9.208;2024-01-06T04:01:56;97713.75;;;3.85;100.00
7888;BME280;3989;48.810;9.208;2024-01-06T04:04:23;97747.09;;;4.10;100.00
7888;BME280;3989;48.810;9.208;2024-01-06T04:06:51;97728.94;;;3.91;100.00
7888;BME280;3989;48.810;9.208;2024-01-06T04:09:18;97724.84;;;3.97;100.00
7888;BME280;3989;48.810;9.208;2024-01-06T04:11:45;97747.63;;;4.06;100.00
7888;BME280;3989;48.810;9.208;2024-01-06T04:14:12;97730.13;;;3.97;100.00
7888;BME280;3989;48.810;9.208;2024-01-06T04:16:38;97723.00;;;3.89;100.00
7888;BME280;3989;48.810;9.208;2024-01-06T04:19:05;97748.59;;;4.05;100.00
7888;BME280;3989;48.810;9.208;2024-01-06T04:21:34;97744.16;;;3.97;100.00
7888;BME280;3989;48.810;9.208;2024-01-06T04:24:02;97750.94;;;4.16;100.00
7888;BME280;3989;48.810;9.208;2024-01-06T04:26:29;97749.59;;;4.12;100.00
7888;BME280;3989;48.810;9.208;2024-01-06T04:28:55;97760.00;;;4.21;100.00
7888;BME280;3989;48.810;9.208;2024-01-06T04:31:22;97753.59;;;4.32;100.00
7888;BME280;3989;48.810;9.208;2024-01-06T04:33:49;97755.22;;;4.33;100.00
7888;BME280;3989;48.810;9.208;2024-01-06T04:36:16;97759.16;;;4.21;100.00
7888;BME280;3989;48.810;9.208;2024-01-06T04:38:43;97759.69;;;4.16;100.00
7888;BME280;3989;48.810;9.208;2024-01-06T04:41:11;97718.53;;;3.82;100.00
7888;BME280;3989;48.810;9.208;2024-01-06T04:43:38;97765.09;;;3.99;100.00
7888;BME280;3989;48.810;9.208;2024-01-06T04:46:05;97758.31;;;3.96;100.00
7888;BME280;3989;48.810;9.208;2024-01-06T04:48:32;97759.97;;;3.97;100.00
7888;BME280;3989;48.810;9.208;2024-01-06T04:50:58;97710.06;;;3.62;100.00
7888;BME280;3989;48.810;9.208;2024-01-06T04:53:25;97771.47;;;3.88;100.00
7888;BME280;3989;48.810;9.208;2024-01-06T04:55:52;97738.84;;;3.89;100.00
7888;BME280;3989;48.810;9.208;2024-01-06T04:58:20;97763.09;;;4.01;100.00
7888;BME280;3989;48.810;9.208;2024-01-06T05:00:47;97764.97;;;4.16;100.00
7888;BME280;3989;48.810;9.208;2024-01-06T05:03:16;97755.22;;;4.25;100.00
7888;BME280;3989;48.810;9.208;2024-01-06T05:05:44;97775.38;;;4.26;100.00
7888;BME280;3989;48.810;9.208;2024-01-06T05:08:11;97750.41;;;3.96;100.00
7888;BME280;3989;48.810;9.208;2024-01-06T05:10:37;97777.47;;;4.06;100.00
7888;BME280;3989;48.810;9.208;2024-01-06T05:13:04;97791.97;;;4.02;100.00
7888;BME280;3989;48.810;9.208;2024-01-06T05:15:32;97781.38;;;3.86;100.00
7888;BME280;3989;48.810;9.208;2024-01-06T05:17:59;97764.53;;;3.79;100.00
7888;BME280;3989;48.810;9.208;2024-01-06T05:20:26;97785.22;;;4.00;100.00
7888;BME280;3989;48.810;9.208;2024-01-06T05:22:53;97784.91;;;4.11;100.00
7888;BME280;3989;48.810;9.208;2024-01-06T05:25:20;97741.47;;;3.89;100.00
7888;BME280;3989;48.810;9.208;2024-01-06T05:27:51;97762.81;;;4.04;100.00
7888;BME280;3989;48.810;9.208;2024-01-06T05:30:21;97778.97;;;4.17;100.00
7888;BME280;3989;48.810;9.208;2024-01-06T05:32:55;97799.97;;;4.43;100.00
7888;BME280;3989;48.810;9.208;2024-01-06T05:35:30;97800.47;;;4.38;100.00
7888;BME280;3989;48.810;9.208;2024-01-06T05:38:01;97797.16;;;4.36;100.00
7888;BME280;3989;48.810;9.208;2024-01-06T05:40:30;97741.97;;;4.01;100.00
7888;BME280;3989;48.810;9.208;2024-01-06T05:42:57;97783.47;;;4.33;100.00
7888;BME280;3989;48.810;9.208;2024-01-06T05:45:24;97782.13;;;4.37;100.00
7888;BME280;3989;48.810;9.208;2024-01-06T05:47:52;97736.56;;;4.02;100.00
7888;BME280;3989;48.810;9.208;2024-01-06T05:50:19;97791.22;;;4.26;100.00
7888;BME280;3989;48.810;9.208;2024-01-06T05:52:46;97805.25;;;4.35;100.00
7888;BME280;3989;48.810;9.208;2024-01-06T05:55:15;97800.63;;;4.37;100.00
7888;BME280;3989;48.810;9.208;2024-01-06T05:57:42;97814.84;;;4.36;100.00
7888;BME280;3989;48.810;9.208;2024-01-06T06:00:11;97815.47;;;4.38;100.00
7888;BME280;3989;48.810;9.208;2024-01-06T06:02:39;97815.97;;;4.41;100.00
7888;BME280;3989;48.810;9.208;2024-01-06T06:05:07;97831.84;;;4.41;100.00
7888;BME280;3989;48.810;9.208;2024-01-06T06:07:34;97824.72;;;4.34;100.00
7888;BME280;3989;48.810;9.208;2024-01-06T06:10:06;97845.91;;;4.58;100.00
7888;BME280;3989;48.810;9.208;2024-01-06T06:12:34;97849.03;;;4.61;100.00
7888;BME280;3989;48.810;9.208;2024-01-06T06:15:01;97854.81;;;4.65;100.00
7888;BME280;3989;48.810;9.208;2024-01-06T06:17:29;97832.66;;;4.50;100.00
7888;BME280;3989;48.810;9.208;2024-01-06T06:19:56;97863.09;;;4.62;100.00
7888;BME280;3989;48.810;9.208;2024-01-06T06:22:28;97854.66;;;4.58;100.00
7888;BME280;3989;48.810;9.208;2024-01-06T06:24:56;97791.50;;;4.15;100.00
7888;BME280;3989;48.810;9.208;2024-01-06T06:27:23;97849.66;;;4.47;100.00
7888;BME280;3989;48.810;9.208;2024-01-06T06:29:50;97857.28;;;4.50;100.00
7888;BME280;3989;48.810;9.208;2024-01-06T06:32:17;97855.31;;;4.60;100.00
7888;BME280;3989;48.810;9.208;2024-01-06T06:34:43;97823.25;;;4.39;100.00
7888;BME280;3989;48.810;9.208;2024-01-06T06:37:10;97875.13;;;4.72;100.00
7888;BME280;3989;48.810;9.208;2024-01-06T06:39:39;97868.03;;;4.73;100.00
7888;BME280;3989;48.810;9.208;2024-01-06T06:42:06;97858.78;;;4.61;100.00
7888;BME280;3989;48.810;9.208;2024-01-06T06:44:33;97861.41;;;4.61;100.00
7888;BME280;3989;48.810;9.208;2024-01-06T06:46:59;97861.75;;;4.66;100.00
7888;BME280;3989;48.810;9.208;2024-01-06T06:49:26;97863.09;;;4.62;100.00
7888;BME280;3989;48.810;9.208;2024-01-06T06:51:53;97864.88;;;4.61;100.00
7888;BME280;3989;48.810;9.208;2024-01-06T06:54:21;97838.59;;;4.44;100.00
7888;BME280;3989;48.810;9.208;2024-01-06T06:56:49;97872.31;;;4.66;100.00
7888;BME280;3989;48.810;9.208;2024-01-06T06:59:16;97885.56;;;4.74;100.00
7888;BME280;3989;48.810;9.208;2024-01-06T07:01:43;97883.75;;;4.74;100.00
7888;BME280;3989;48.810;9.208;2024-01-06T07:04:10;97888.19;;;4.74;100.00
7888;BME280;3989;48.810;9.208;2024-01-06T07:06:37;97893.47;;;4.74;100.00
7888;BME280;3989;48.810;9.208;2024-01-06T07:09:03;97886.84;;;4.70;100.00
7888;BME280;3989;48.810;9.208;2024-01-06T07:11:31;97838.09;;;4.32;100.00
7888;BME280;3989;48.810;9.208;2024-01-06T07:13:59;97903.72;;;4.77;100.00
7888;BME280;3989;48.810;9.208;2024-01-06T07:16:26;97895.94;;;4.75;100.00
7888;BME280;3989;48.810;9.208;2024-01-06T07:18:53;97898.94;;;4.81;100.00
7888;BME280;3989;48.810;9.208;2024-01-06T07:21:20;97906.88;;;4.81;100.00
7888;BME280;3989;48.810;9.208;2024-01-06T07:23:47;97894.13;;;4.68;100.00
7888;BME280;3989;48.810;9.208;2024-01-06T07:26:13;97901.06;;;4.69;100.00
7888;BME280;3989;48.810;9.208;2024-01-06T07:28:40;97911.47;;;4.70;100.00
7888;BME280;3989;48.810;9.208;2024-01-06T07:31:11;97914.78;;;4.81;100.00
7888;BME280;3989;48.810;9.208;2024-01-06T07:33:41;97919.56;;;4.85;100.00
7888;BME280;3989;48.810;9.208;2024-01-06T07:36:08;97913.97;;;4.88;100.00
7888;BME280;3989;48.810;9.208;2024-01-06T07:38:37;97903.53;;;4.78;100.00
7888;BME280;3989;48.810;9.208;2024-01-06T07:41:04;97905.84;;;4.82;100.00
7888;BME280;3989;48.810;9.208;2024-01-06T07:43:31;97911.31;;;4.88;100.00
7888;BME280;3989;48.810;9.208;2024-01-06T07:45:58;97916.94;;;4.93;100.00
7888;BME280;3989;48.810;9.208;2024-01-06T07:48:26;97915.63;;;4.97;100.00
7888;BME280;3989;48.810;9.208;2024-01-06T07:50:53;97902.91;;;4.93;100.00
7888;BME280;3989;48.810;9.208;2024-01-06T07:53:20;97892.66;;;4.90;100.00
7888;BME280;3989;48.810;9.208;2024-01-06T07:55:47;97916.59;;;5.04;100.00
7888;BME280;3989;48.810;9.208;2024-01-06T07:58:14;97899.44;;;5.00;100.00
7888;BME280;3989;48.810;9.208;2024-01-06T08:00:41;97897.94;;;4.98;100.00
7888;BME280;3989;48.810;9.208;2024-01-06T08:03:07;97883.75;;;4.91;100.00
7888;BME280;3989;48.810;9.208;2024-01-06T08:05:38;97912.50;;;5.10;100.00
7888;BME280;3989;48.810;9.208;2024-01-06T08:08:05;97913.47;;;5.09;100.00
7888;BME280;3989;48.810;9.208;2024-01-06T08:10:32;97921.06;;;5.28;100.00
7888;BME280;3989;48.810;9.208;2024-01-06T08:12:59;97929.38;;;5.33;100.00
7888;BME280;3989;48.810;9.208;2024-01-06T08:15:26;97928.69;;;5.39;100.00
7888;BME280;3989;48.810;9.208;2024-01-06T08:17:52;97917.94;;;5.41;100.00
7888;BME280;3989;48.810;9.208;2024-01-06T08:20:19;97914.94;;;5.44;100.00
7888;BME280;3989;48.810;9.208;2024-01-06T08:22:48;97894.44;;;5.38;100.00
7888;BME280;3989;48.810;9.208;2024-01-06T08:25:15;97920.06;;;5.53;100.00
7888;BME280;3989;48.810;9.208;2024-01-06T08:27:42;97910.78;;;5.57;100.00
7888;BME280;3989;48.810;9.208;2024-01-06T08:30:10;97928.16;;;5.68;100.00
7888;BME280;3989;48.810;9.208;2024-01-06T08:32:37;97910.94;;;5.56;100.00
7888;BME280;3989;48.810;9.208;2024-01-06T08:35:06;97934.91;;;5.70;100.00
7888;BME280;3989;48.810;9.208;2024-01-06T08:37:33;97935.56;;;5.72;100.00
7888;BME280;3989;48.810;9.208;2024-01-06T08:40:01;97941.19;;;5.77;100.00
7888;BME280;3989;48.810;9.208;2024-01-06T08:42:29;97879.22;;;5.48;100.00
7888;BME280;3989;48.810;9.208;2024-01-06T08:45:01;97934.25;;;5.85;100.00
7888;BME280;3989;48.810;9.208;2024-01-06T08:47:31;97938.41;;;5.87;100.00
7888;BME280;3989;48.810;9.208;2024-01-06T08:49:58;97955.06;;;6.04;100.00
7888;BME280;3989;48.810;9.208;2024-01-06T08:52:23;97952.38;;;6.12;100.00
7888;BME280;3989;48.810;9.208;2024-01-06T08:54:50;97934.50;;;6.14;100.00
7888;BME280;3989;48.810;9.208;2024-01-06T08:57:18;97916.47;;;6.01;100.00
7888;BME280;3989;48.810;9.208;2024-01-06T08:59:45;97954.63;;;6.31;100.00
7888;BME280;3989;48.810;9.208;2024-01-06T09:02:12;97945.03;;;6.30;100.00
7888;BME280;3989;48.810;9.208;2024-01-06T09:04:39;97934.09;;;6.33;100.00
7888;BME280;3989;48.810;9.208;2024-01-06T09:07:06;97953.22;;;6.51;100.00
7888;BME280;3989;48.810;9.208;2024-01-06T09:09:33;97966.41;;;6.59;100.00
7888;BME280;3989;48.810;9.208;2024-01-06T09:12:00;97959.81;;;6.55;100.00
7888;BME280;3989;48.810;9.208;2024-01-06T09:14:27;97967.78;;;6.55;100.00
7888;BME280;3989;48.810;9.208;2024-01-06T09:16:55;97967.81;;;6.47;100.00
7888;BME280;3989;48.810;9.208;2024-01-06T09:19:22;97968.53;;;6.33;100.00
7888;BME280;3989;48.810;9.208;2024-01-06T09:21:49;97963.75;;;6.28;100.00
7888;BME280;3989;48.810;9.208;2024-01-06T09:24:16;97976.16;;;6.28;100.00
7888;BME280;3989;48.810;9.208;2024-01-06T09:26:43;97973.03;;;6.24;100.00
7888;BME280;3989;48.810;9.208;2024-01-06T09:29:11;97977.16;;;6.27;100.00
7888;BME280;3989;48.810;9.208;2024-01-06T09:31:39;97975.69;;;6.24;100.00
7888;BME280;3989;48.810;9.208;2024-01-06T09:34:09;97923.16;;;5.97;100.00
7888;BME280;3989;48.810;9.208;2024-01-06T09:36:37;97958.78;;;6.25;100.00
7888;BME280;3989;48.810;9.208;2024-01-06T09:39:04;97990.53;;;6.42;100.00
7888;BME280;3989;48.810;9.208;2024-01-06T09:41:33;97993.03;;;6.35;100.00
7888;BME280;3989;48.810;9.208;2024-01-06T09:44:00;97997.94;;;6.54;100.00
7888;BME280;3989;48.810;9.208;2024-01-06T09:46:28;97985.88;;;6.44;100.00
7888;BME280;3989;48.810;9.208;2024-01-06T09:48:58;97968.00;;;6.38;100.00
7888;BME280;3989;48.810;9.208;2024-01-06T09:51:25;98008.44;;;6.78;100.00
7888;BME280;3989;48.810;9.208;2024-01-06T09:53:57;98003.78;;;6.80;100.00
7888;BME280;3989;48.810;9.208;2024-01-06T09:56:26;97991.91;;;6.68;100.00
7888;BME280;3989;48.810;9.208;2024-01-06T09:58:54;97962.50;;;6.47;100.00
7888;BME280;3989;48.810;9.208;2024-01-06T10:01:21;97995.94;;;6.87;100.00
7888;BME280;3989;48.810;9.208;2024-01-06T10:03:48;97973.69;;;6.65;100.00
7888;BME280;3989;48.810;9.208;2024-01-06T10:06:17;98002.31;;;6.70;100.00
7888;BME280;3989;48.810;9.208;2024-01-06T10:08:49;98008.53;;;6.54;100.00
7888;BME280;3989;48.810;9.208;2024-01-06T10:11:16;97975.81;;;6.39;100.00
7888;BME280;3989;48.810;9.208;2024-01-06T10:13:43;97957.59;;;6.36;100.00
7888;BME280;3989;48.810;9.208;2024-01-06T10:16:10;97969.13;;;6.51;100.00
7888;BME280;3989;48.810;9.208;2024-01-06T10:18:47;98007.84;;;6.60;100.00
7888;BME280;3989;48.810;9.208;2024-01-06T10:21:20;97958.09;;;6.31;100.00
7888;BME280;3989;48.810;9.208;2024-01-06T10:23:48;98003.16;;;6.70;100.00
7888;BME280;3989;48.810;9.208;2024-01-06T10:26:16;98007.34;;;6.65;100.00
7888;BME280;3989;48.810;9.208;2024-01-06T10:28:43;98010.69;;;6.59;100.00
7888;BME280;3989;48.810;9.208;2024-01-06T10:31:10;98013.00;;;6.54;100.00
7888;BME280;3989;48.810;9.208;2024-01-06T10:33:38;98007.88;;;6.52;100.00
7888;BME280;3989;48.810;9.208;2024-01-06T10:36:06;98001.63;;;6.37;100.00
7888;BME280;3989;48.810;9.208;2024-01-06T10:38:36;98000.13;;;6.43;100.00
7888;BME280;3989;48.810;9.208;2024-01-06T10:41:04;97950.47;;;5.90;100.00
7888;BME280;3989;48.810;9.208;2024-01-06T10:43:33;98004.97;;;6.31;100.00
7888;BME280;3989;48.810;9.208;2024-01-06T10:46:03;98010.59;;;6.28;100.00
7888;BME280;3989;48.810;9.208;2024-01-06T10:48:32;98006.00;;;6.22;100.00
7888;BME280;3989;48.810;9.208;2024-01-06T10:51:00;97994.25;;;6.16;100.00
7888;BME280;3989;48.810;9.208;2024-01-06T10:53:28;98017.09;;;6.25;100.00
7888;BME280;3989;48.810;9.208;2024-01-06T10:56:01;98008.63;;;6.30;100.00
7888;BME280;3989;48.810;9.208;2024-01-06T10:58:45;98005.50;;;6.18;100.00
7888;BME280;3989;48.810;9.208;2024-01-06T11:01:15;98010.66;;;6.12;100.00
7888;BME280;3989;48.810;9.208;2024-01-06T11:03:47;98000.78;;;5.98;100.00
7888;BME280;3989;48.810;9.208;2024-01-06T11:06:15;97993.81;;;5.89;100.00
7888;BME280;3989;48.810;9.208;2024-01-06T11:08:48;98006.22;;;5.96;100.00
7888;BME280;3989;48.810;9.208;2024-01-06T11:11:19;97949.66;;;5.65;100.00
7888;BME280;3989;48.810;9.208;2024-01-06T11:13:46;97989.00;;;6.00;100.00
7888;BME280;3989;48.810;9.208;2024-01-06T11:16:33;98010.66;;;6.20;100.00
7888;BME280;3989;48.810;9.208;2024-01-06T11:19:00;97989.59;;;6.18;100.00
7888;BME280;3989;48.810;9.208;2024-01-06T11:21:33;97980.97;;;6.24;100.00
7888;BME280;3989;48.810;9.208;2024-01-06T11:24:18;97956.00;;;6.11;100.00
7888;BME280;3989;48.810;9.208;2024-01-06T11:26:55;97998.34;;;6.27;100.00
7888;BME280;3989;48.810;9.208;2024-01-06T11:29:23;97975.88;;;6.23;100.00
7888;BME280;3989;48.810;9.208;2024-01-06T11:32:19;98001.00;;;6.27;100.00
7888;BME280;3989;48.810;9.208;2024-01-06T11:34:48;98000.72;;;6.14;100.00
7888;BME280;3989;48.810;9.208;2024-01-06T11:37:18;97978.91;;;6.04;100.00
7888;BME280;3989;48.810;9.208;2024-01-06T11:39:45;97972.94;;;6.10;100.00
7888;BME280;3989;48.810;9.208;2024-01-06T11:42:14;97949.38;;;6.23;100.00
7888;BME280;3989;48.810;9.208;2024-01-06T11:44:44;97980.47;;;6.68;100.00
7888;BME280;3989;48.810;9.208;2024-01-06T11:47:12;97970.53;;;6.93;100.00
7888;BME280;3989;48.810;9.208;2024-01-06T11:49:44;97978.94;;;7.04;100.00
7888;BME280;3989;48.810;9.208;2024-01-06T11:52:12;97971.03;;;6.96;100.00
7888;BME280;3989;48.810;9.208;2024-01-06T11:54:42;97974.34;;;6.67;100.00
7888;BME280;3989;48.810;9.208;2024-01-06T11:57:09;97939.19;;;6.43;100.00
7888;BME280;3989;48.810;9.208;2024-01-06T11:59:38;97976.50;;;6.64;100.00
7888;BME280;3989;48.810;9.208;2024-01-06T12:02:05;97956.34;;;6.55;100.00
7888;BME280;3989;48.810;9.208;2024-01-06T12:04:32;97977.56;;;6.47;100.00
7888;BME280;3989;48.810;9.208;2024-01-06T12:07:05;97952.25;;;6.44;100.00
7888;BME280;3989;48.810;9.208;2024-01-06T12:09:33;97943.56;;;6.58;100.00
7888;BME280;3989;48.810;9.208;2024-01-06T12:12:02;97967.28;;;6.82;100.00
7888;BME280;3989;48.810;9.208;2024-01-06T12:14:30;97976.25;;;6.81;100.00
7888;BME280;3989;48.810;9.208;2024-01-06T12:16:59;97972.41;;;6.53;100.00
7888;BME280;3989;48.810;9.208;2024-01-06T12:19:29;97933.63;;;6.21;100.00
7888;BME280;3989;48.810;9.208;2024-01-06T12:21:57;97971.00;;;6.43;100.00
7888;BME280;3989;48.810;9.208;2024-01-06T12:24:26;97975.19;;;6.29;100.00
7888;BME280;3989;48.810;9.208;2024-01-06T12:26:55;97962.28;;;6.18;100.00
7888;BME280;3989;48.810;9.208;2024-01-06T12:29:26;97952.72;;;6.09;100.00
7888;BME280;3989;48.810;9.208;2024-01-06T12:31:54;97959.81;;;6.16;100.00
7888;BME280;3989;48.810;9.208;2024-01-06T12:34:23;97957.03;;;6.10;100.00
7888;BME280;3989;48.810;9.208;2024-01-06T12:36:52;97961.44;;;6.17;100.00
7888;BME280;3989;48.810;9.208;2024-01-06T12:39:21;97962.47;;;6.16;100.00
7888;BME280;3989;48.810;9.208;2024-01-06T12:41:51;97935.84;;;6.02;100.00
7888;BME280;3989;48.810;9.208;2024-01-06T12:44:18;97945.59;;;6.09;100.00
7888;BME280;3989;48.810;9.208;2024-01-06T12:46:46;97954.88;;;6.05;100.00
7888;BME280;3989;48.810;9.208;2024-01-06T12:49:13;97945.97;;;5.98;100.00
7888;BME280;3989;48.810;9.208;2024-01-06T12:51:41;97949.59;;;6.05;100.00
7888;BME280;3989;48.810;9.208;2024-01-06T12:54:09;97944.81;;;6.01;100.00
7888;BME280;3989;48.810;9.208;2024-01-06T12:56:36;97956.84;;;6.11;100.00
7888;BME280;3989;48.810;9.208;2024-01-06T12:59:03;97957.56;;;5.97;100.00
7888;BME280;3989;48.810;9.208;2024-01-06T13:01:31;97971.31;;;6.01;100.00
7888;BME280;3989;48.810;9.208;2024-01-06T13:03:58;97932.56;;;5.83;100.00
7888;BME280;3989;48.810;9.208;2024-01-06T13:06:27;97960.38;;;5.96;100.00
7888;BME280;3989;48.810;9.208;2024-01-06T13:08:55;97956.41;;;5.92;100.00
7888;BME280;3989;48.810;9.208;2024-01-06T13:11:22;97949.97;;;5.86;100.00
7888;BME280;3989;48.810;9.208;2024-01-06T13:13:49;97942.81;;;5.78;100.00
7888;BME280;3989;48.810;9.208;2024-01-06T13:16:16;97966.69;;;5.87;100.00
7888;BME280;3989;48.810;9.208;2024-01-06T13:18:44;97970.47;;;5.84;100.00
7888;BME280;3989;48.810;9.208;2024-01-06T13:21:11;97959.72;;;5.69;100.00
7888;BME280;3989;48.810;9.208;2024-01-06T13:23:38;97965.53;;;5.81;100.00
7888;BME280;3989;48.810;9.208;2024-01-06T13:26:07;97934.75;;;5.56;100.00